sensor_id;sensor_type;location;lat;lon;timestamp;P1;durP1;ratioP1;P2;durP2;ratioP2
79592;SDS011;69074;45.164;9.704;2023-11-19T00:00:08;42.2;;;34.8;;
79592;SDS011;69074;45.164;9.704;2023-11-19T00:02:33;42.2;;;34.8;;
79592;SDS011;69074;45.164;9.704;2023-11-19T00:04:58;42.2;;;34.8;;
79592;SDS011;69074;45.164;9.704;2023-11-19T00:07:23;42.2;;;34.8;;
79592;SDS011;69074;45.164;9.704;2023-11-19T00:09:48;42.2;;;34.8;;
79592;SDS011;69074;45.164;9.704;2023-11-19T00:12:13;42.2;;;34.8;;
79592;SDS011;69074;45.164;9.704;2023-11-19T00:14:38;42.2;;;34.8;;
79592;SDS011;69074;45.164;9.704;2023-11-19T00:17:03;38.4;;;32.9;;
79592;SDS011;69074;45.164;9.704;2023-11-19T00:19:28;38.4;;;32.9;;
79592;SDS011;69074;45.164;9.704;2023-11-19T00:21:53;38.4;;;32.9;;
79592;SDS011;69074;45.164;9.704;2023-11-19T00:24:18;38.4;;;32.9;;
79592;SDS011;69074;45.164;9.704;2023-11-19T00:26:43;38.4;;;32.9;;
79592;SDS011;69074;45.164;9.704;2023-11-19T00:29:08;38.4;;;32.9;;
79592;SDS011;69074;45.164;9.704;2023-11-19T00:31:33;44.2;;;36.9;;
79592;SDS011;69074;45.164;9.704;2023-11-19T00:33:58;44.2;;;36.9;;
79592;SDS011;69074;45.164;9.704;2023-11-19T00:36:23;44.2;;;36.9;;
79592;SDS011;69074;45.164;9.704;2023-11-19T00:38:48;44.2;;;36.9;;
79592;SDS011;69074;45.164;9.704;2023-11-19T00:41:13;44.2;;;36.9;;
79592;SDS011;69074;45.164;9.704;2023-11-19T00:43:38;44.2;;;36.9;;
79592;SDS011;69074;45.164;9.704;2023-11-19T00:46:03;46.7;;;39.5;;
79592;SDS011;69074;45.164;9.704;2023-11-19T00:48:28;46.7;;;39.5;;
79592;SDS011;69074;45.164;9.704;2023-11-19T00:50:53;46.7;;;39.5;;
79592;SDS011;69074;45.164;9.704;2023-11-19T00:53:18;46.7;;;39.5;;
79592;SDS011;69074;45.164;9.704;2023-11-19T00:55:43;46.7;;;39.5;;
79592;SDS011;69074;45.164;9.704;2023-11-19T00:58:08;46.7;;;39.5;;
79592;SDS011;69074;45.164;9.704;2023-11-19T01:00:33;45.3;;;38.8;;
79592;SDS011;69074;45.164;9.704;2023-11-19T01:02:58;45.3;;;38.8;;
79592;SDS011;69074;45.164;9.704;2023-11-19T01:05:23;45.3;;;38.8;;
79592;SDS011;69074;45.164;9.704;2023-11-19T01:07:48;45.3;;;38.8;;
79592;SDS011;69074;45.164;9.704;2023-11-19T01:10:13;45.3;;;38.8;;
79592;SDS011;69074;45.164;9.704;2023-11-19T01:12:38;45.3;;;38.8;;
79592;SDS011;69074;45.164;9.704;2023-11-19T01:15:03;45.3;;;38.8;;
79592;SDS011;69074;45.164;9.704;2023-11-19T01:17:28;45.4;;;37.5;;
79592;SDS011;69074;45.164;9.704;2023-11-19T01:19:53;45.4;;;37.5;;
79592;SDS011;69074;45.164;9.704;2023-11-19T01:22:18;45.4;;;37.5;;
79592;SDS011;69074;45.164;9.704;2023-11-19T01:24:43;45.4;;;37.5;;
79592;SDS011;69074;45.164;9.704;2023-11-19T01:27:08;45.4;;;37.5;;
79592;SDS011;69074;45.164;9.704;2023-11-19T01:29:33;45.4;;;37.5;;
79592;SDS011;69074;45.164;9.704;2023-11-19T01:31:58;39.7;;;34.7;;
79592;SDS011;69074;45.164;9.704;2023-11-19T01:34:23;39.7;;;34.7;;
79592;SDS011;69074;45.164;9.704;2023-11-19T01:36:48;39.7;;;34.7;;
79592;SDS011;69074;45.164;9.704;2023-11-19T01:39:13;39.7;;;34.7;;
79592;SDS011;69074;45.164;9.704;2023-11-19T01:41:38;39.7;;;34.7;;
79592;SDS011;69074;45.164;9.704;2023-11-19T01:44:03;39.7;;;34.7;;
79592;SDS011;69074;45.164;9.704;2023-11-19T01:46:28;37.0;;;31.8;;
79592;SDS011;69074;45.164;9.704;2023-11-19T01:48:53;37.0;;;31.8;;
79592;SDS011;69074;45.164;9.704;2023-11-19T01:51:18;37.0;;;31.8;;
79592;SDS011;69074;45.164;9.704;2023-11-19T01:53:43;37.0;;;31.8;;
79592;SDS011;69074;45.164;9.704;2023-11-19T01:56:08;37.0;;;31.8;;
79592;SDS011;69074;45.164;9.704;2023-11-19T01:58:33;37.0;;;31.8;;
79592;SDS011;69074;45.164;9.704;2023-11-19T02:00:58;36.6;;;30.3;;
79592;SDS011;69074;45.164;9.704;2023-11-19T02:03:23;36.6;;;30.3;;
79592;SDS011;69074;45.164;9.704;2023-11-19T02:05:48;36.6;;;30.3;;
79592;SDS011;69074;45.164;9.704;2023-11-19T02:08:13;36.6;;;30.3;;
79592;SDS011;69074;45.164;9.704;2023-11-19T02:10:38;36.6;;;30.3;;
79592;SDS011;69074;45.164;9.704;2023-11-19T02:13:03;36.6;;;30.3;;
79592;SDS011;69074;45.164;9.704;2023-11-19T02:15:28;31.6;;;28.2;;
79592;SDS011;69074;45.164;9.704;2023-11-19T02:17:53;31.6;;;28.2;;
79592;SDS011;69074;45.164;9.704;2023-11-19T02:20:18;31.6;;;28.2;;
79592;SDS011;69074;45.164;9.704;2023-11-19T02:22:43;31.6;;;28.2;;
79592;SDS011;69074;45.164;9.704;2023-11-19T02:25:11;31.6;;;28.2;;
79592;SDS011;69074;45.164;9.704;2023-11-19T02:27:40;31.6;;;28.2;;
79592;SDS011;69074;45.164;9.704;2023-11-19T02:29:58;31.6;;;28.2;;
79592;SDS011;69074;45.164;9.704;2023-11-19T02:32:23;30.4;;;26.5;;
79592;SDS011;69074;45.164;9.704;2023-11-19T02:34:48;30.4;;;26.5;;
79592;SDS011;69074;45.164;9.704;2023-11-19T02:37:13;30.4;;;26.5;;
79592;SDS011;69074;45.164;9.704;2023-11-19T02:39:38;30.4;;;26.5;;
79592;SDS011;69074;45.164;9.704;2023-11-19T02:42:03;30.4;;;26.5;;
79592;SDS011;69074;45.164;9.704;2023-11-19T02:44:28;30.4;;;26.5;;
79592;SDS011;69074;45.164;9.704;2023-11-19T02:46:53;27.0;;;23.6;;
79592;SDS011;69074;45.164;9.704;2023-11-19T02:49:18;27.0;;;23.6;;
79592;SDS011;69074;45.164;9.704;2023-11-19T02:51:43;27.0;;;23.6;;
79592;SDS011;69074;45.164;9.704;2023-11-19T02:54:08;27.0;;;23.6;;
79592;SDS011;69074;45.164;9.704;2023-11-19T02:56:33;27.0;;;23.6;;
79592;SDS011;69074;45.164;9.704;2023-11-19T02:58:58;27.0;;;23.6;;
79592;SDS011;69074;45.164;9.704;2023-11-19T03:01:23;26.5;;;22.9;;
79592;SDS011;69074;45.164;9.704;2023-11-19T03:03:48;26.5;;;22.9;;
79592;SDS011;69074;45.164;9.704;2023-11-19T03:06:13;26.5;;;22.9;;
79592;SDS011;69074;45.164;9.704;2023-11-19T03:08:38;26.5;;;22.9;;
79592;SDS011;69074;45.164;9.704;2023-11-19T03:11:03;26.5;;;22.9;;
79592;SDS011;69074;45.164;9.704;2023-11-19T03:13:28;26.5;;;22.9;;
79592;SDS011;69074;45.164;9.704;2023-11-19T03:15:53;22.2;;;19.8;;
79592;SDS011;69074;45.164;9.704;2023-11-19T03:18:18;22.2;;;19.8;;
79592;SDS011;69074;45.164;9.704;2023-11-19T03:20:43;22.2;;;19.8;;
79592;SDS011;69074;45.164;9.704;2023-11-19T03:23:08;22.2;;;19.8;;
79592;SDS011;69074;45.164;9.704;2023-11-19T03:25:33;22.2;;;19.8;;
79592;SDS011;69074;45.164;9.704;2023-11-19T03:27:58;22.2;;;19.8;;
79592;SDS011;69074;45.164;9.704;2023-11-19T03:30:23;21.0;;;18.5;;
79592;SDS011;69074;45.164;9.704;2023-11-19T03:32:48;21.0;;;18.5;;
79592;SDS011;69074;45.164;9.704;2023-11-19T03:35:13;21.0;;;18.5;;
79592;SDS011;69074;45.164;9.704;2023-11-19T03:37:38;21.0;;;18.5;;
79592;SDS011;69074;45.164;9.704;2023-11-19T03:40:03;21.0;;;18.5;;
79592;SDS011;69074;45.164;9.704;2023-11-19T03:42:28;21.0;;;18.5;;
79592;SDS011;69074;45.164;9.704;2023-11-19T03:44:53;21.0;;;18.5;;
79592;SDS011;69074;45.164;9.704;2023-11-19T03:47:18;18.8;;;16.9;;
79592;SDS011;69074;45.164;9.704;2023-11-19T03:49:46;18.8;;;16.9;;
79592;SDS011;69074;45.164;9.704;2023-11-19T03:52:08;18.8;;;16.9;;
79592;SDS011;69074;45.164;9.704;2023-11-19T03:54:33;18.8;;;16.9;;
79592;SDS011;69074;45.164;9.704;2023-11-19T03:56:58;18.8;;;16.9;;
79592;SDS011;69074;45.164;9.704;2023-11-19T03:59:23;18.8;;;16.9;;
79592;SDS011;69074;45.164;9.704;2023-11-19T04:01:48;18.9;;;16.1;;
79592;SDS011;69074;45.164;9.704;2023-11-19T04:04:13;18.9;;;16.1;;
79592;SDS011;69074;45.164;9.704;2023-11-19T04:06:38;18.9;;;16.1;;
79592;SDS011;69074;45.164;9.704;2023-11-19T04:09:03;18.9;;;16.1;;
79592;SDS011;69074;45.164;9.704;2023-11-19T04:11:28;18.9;;;16.1;;
79592;SDS011;69074;45.164;9.704;2023-11-19T04:13:53;18.9;;;16.1;;
79592;SDS011;69074;45.164;9.704;2023-11-19T04:16:18;19.0;;;15.6;;
79592;SDS011;69074;45.164;9.704;2023-11-19T04:18:43;19.0;;;15.6;;
79592;SDS011;69074;45.164;9.704;2023-11-19T04:21:08;19.0;;;15.6;;
79592;SDS011;69074;45.164;9.704;2023-11-19T04:23:33;19.0;;;15.6;;
79592;SDS011;69074;45.164;9.704;2023-11-19T04:26:01;19.0;;;15.6;;
79592;SDS011;69074;45.164;9.704;2023-11-19T04:28:23;19.0;;;15.6;;
79592;SDS011;69074;45.164;9.704;2023-11-19T04:30:48;15.3;;;13.7;;
79592;SDS011;69074;45.164;9.704;2023-11-19T04:33:13;15.3;;;13.7;;
79592;SDS011;69074;45.164;9.704;2023-11-19T04:35:38;15.3;;;13.7;;
79592;SDS011;69074;45.164;9.704;2023-11-19T04:38:03;15.3;;;13.7;;
79592;SDS011;69074;45.164;9.704;2023-11-19T04:40:28;15.3;;;13.7;;
79592;SDS011;69074;45.164;9.704;2023-11-19T04:42:53;15.3;;;13.7;;
79592;SDS011;69074;45.164;9.704;2023-11-19T04:45:18;15.1;;;13.6;;
79592;SDS011;69074;45.164;9.704;2023-11-19T04:47:43;15.1;;;13.6;;
79592;SDS011;69074;45.164;9.704;2023-11-19T04:50:09;15.1;;;13.6;;
79592;SDS011;69074;45.164;9.704;2023-11-19T04:52:33;15.1;;;13.6;;
79592;SDS011;69074;45.164;9.704;2023-11-19T04:54:58;15.1;;;13.6;;
79592;SDS011;69074;45.164;9.704;2023-11-19T04:57:23;15.1;;;13.6;;
79592;SDS011;69074;45.164;9.704;2023-11-19T04:59:48;15.1;;;13.6;;
79592;SDS011;69074;45.164;9.704;2023-11-19T05:02:13;13.6;;;11.8;;
79592;SDS011;69074;45.164;9.704;2023-11-19T05:04:41;13.6;;;11.8;;
79592;SDS011;69074;45.164;9.704;2023-11-19T05:07:03;13.6;;;11.8;;
79592;SDS011;69074;45.164;9.704;2023-11-19T05:09:28;13.6;;;11.8;;
79592;SDS011;69074;45.164;9.704;2023-11-19T05:11:53;13.6;;;11.8;;
79592;SDS011;69074;45.164;9.704;2023-11-19T05:14:18;13.6;;;11.8;;
79592;SDS011;69074;45.164;9.704;2023-11-19T05:16:43;12.6;;;11.3;;
79592;SDS011;69074;45.164;9.704;2023-11-19T05:19:08;12.6;;;11.3;;
79592;SDS011;69074;45.164;9.704;2023-11-19T05:21:33;12.6;;;11.3;;
79592;SDS011;69074;45.164;9.704;2023-11-19T05:23:58;12.6;;;11.3;;
79592;SDS011;69074;45.164;9.704;2023-11-19T05:26:23;12.6;;;11.3;;
79592;SDS011;69074;45.164;9.704;2023-11-19T05:28:48;12.6;;;11.3;;
79592;SDS011;69074;45.164;9.704;2023-11-19T05:31:13;13.0;;;11.6;;
79592;SDS011;69074;45.164;9.704;2023-11-19T05:33:38;13.0;;;11.6;;
79592;SDS011;69074;45.164;9.704;2023-11-19T05:36:04;13.0;;;11.6;;
79592;SDS011;69074;45.164;9.704;2023-11-19T05:38:28;13.0;;;11.6;;
79592;SDS011;69074;45.164;9.704;2023-11-19T05:40:53;13.0;;;11.6;;
79592;SDS011;69074;45.164;9.704;2023-11-19T05:43:18;13.0;;;11.6;;
79592;SDS011;69074;45.164;9.704;2023-11-19T05:45:43;11.3;;;10.0;;
79592;SDS011;69074;45.164;9.704;2023-11-19T05:48:08;11.3;;;10.0;;
79592;SDS011;69074;45.164;9.704;2023-11-19T05:50:33;11.3;;;10.0;;
79592;SDS011;69074;45.164;9.704;2023-11-19T05:52:58;11.3;;;10.0;;
79592;SDS011;69074;45.164;9.704;2023-11-19T05:55:23;11.3;;;10.0;;
79592;SDS011;69074;45.164;9.704;2023-11-19T05:57:48;11.3;;;10.0;;
79592;SDS011;69074;45.164;9.704;2023-11-19T06:00:13;10.8;;;9.7;;
79592;SDS011;69074;45.164;9.704;2023-11-19T06:02:38;10.8;;;9.7;;
79592;SDS011;69074;45.164;9.704;2023-11-19T06:05:04;10.8;;;9.7;;
79592;SDS011;69074;45.164;9.704;2023-11-19T06:07:28;10.8;;;9.7;;
79592;SDS011;69074;45.164;9.704;2023-11-19T06:09:53;10.8;;;9.7;;
79592;SDS011;69074;45.164;9.704;2023-11-19T06:12:18;10.8;;;9.7;;
79592;SDS011;69074;45.164;9.704;2023-11-19T06:14:43;10.8;;;9.7;;
79592;SDS011;69074;45.164;9.704;2023-11-19T06:17:08;10.7;;;9.4;;
79592;SDS011;69074;45.164;9.704;2023-11-19T06:19:33;10.7;;;9.4;;
79592;SDS011;69074;45.164;9.704;2023-11-19T06:21:58;10.7;;;9.4;;
79592;SDS011;69074;45.164;9.704;2023-11-19T06:24:23;10.7;;;9.4;;
79592;SDS011;69074;45.164;9.704;2023-11-19T06:26:48;10.7;;;9.4;;
79592;SDS011;69074;45.164;9.704;2023-11-19T06:29:13;10.7;;;9.4;;
79592;SDS011;69074;45.164;9.704;2023-11-19T06:31:40;9.1;;;8.2;;
79592;SDS011;69074;45.164;9.704;2023-11-19T06:34:03;9.1;;;8.2;;
79592;SDS011;69074;45.164;9.704;2023-11-19T06:36:28;9.1;;;8.2;;
79592;SDS011;69074;45.164;9.704;2023-11-19T06:38:53;9.1;;;8.2;;
79592;SDS011;69074;45.164;9.704;2023-11-19T06:41:18;9.1;;;8.2;;
79592;SDS011;69074;45.164;9.704;2023-11-19T06:43:43;9.1;;;8.2;;
79592;SDS011;69074;45.164;9.704;2023-11-19T06:46:14;8.9;;;7.8;;
79592;SDS011;69074;45.164;9.704;2023-11-19T06:48:33;8.9;;;7.8;;
79592;SDS011;69074;45.164;9.704;2023-11-19T06:50:59;8.9;;;7.8;;
79592;SDS011;69074;45.164;9.704;2023-11-19T06:53:23;8.9;;;7.8;;
79592;SDS011;69074;45.164;9.704;2023-11-19T06:55:48;8.9;;;7.8;;
79592;SDS011;69074;45.164;9.704;2023-11-19T06:58:13;8.9;;;7.8;;
79592;SDS011;69074;45.164;9.704;2023-11-19T07:00:38;9.2;;;7.7;;
79592;SDS011;69074;45.164;9.704;2023-11-19T07:03:03;9.2;;;7.7;;
79592;SDS011;69074;45.164;9.704;2023-11-19T07:05:28;9.2;;;7.7;;
79592;SDS011;69074;45.164;9.704;2023-11-19T07:07:53;9.2;;;7.7;;
79592;SDS011;69074;45.164;9.704;2023-11-19T07:10:18;9.2;;;7.7;;
79592;SDS011;69074;45.164;9.704;2023-11-19T07:12:43;9.2;;;7.7;;
79592;SDS011;69074;45.164;9.704;2023-11-19T07:15:09;10.1;;;7.9;;
79592;SDS011;69074;45.164;9.704;2023-11-19T07:17:33;10.1;;;7.9;;
79592;SDS011;69074;45.164;9.704;2023-11-19T07:19:58;10.1;;;7.9;;
79592;SDS011;69074;45.164;9.704;2023-11-19T07:22:23;10.1;;;7.9;;
79592;SDS011;69074;45.164;9.704;2023-11-19T07:24:48;10.1;;;7.9;;
79592;SDS011;69074;45.164;9.704;2023-11-19T07:27:13;10.1;;;7.9;;
79592;SDS011;69074;45.164;9.704;2023-11-19T07:29:38;10.1;;;7.9;;
79592;SDS011;69074;45.164;9.704;2023-11-19T07:32:04;7.9;;;6.9;;
79592;SDS011;69074;45.164;9.704;2023-11-19T07:34:28;7.9;;;6.9;;
79592;SDS011;69074;45.164;9.704;2023-11-19T07:36:53;7.9;;;6.9;;
79592;SDS011;69074;45.164;9.704;2023-11-19T07:39:18;7.9;;;6.9;;
79592;SDS011;69074;45.164;9.704;2023-11-19T07:41:43;7.9;;;6.9;;
79592;SDS011;69074;45.164;9.704;2023-11-19T07:44:08;7.9;;;6.9;;
79592;SDS011;69074;45.164;9.704;2023-11-19T07:46:33;8.1;;;7.0;;
79592;SDS011;69074;45.164;9.704;2023-11-19T07:48:58;8.1;;;7.0;;
79592;SDS011;69074;45.164;9.704;2023-11-19T07:51:23;8.1;;;7.0;;
79592;SDS011;69074;45.164;9.704;2023-11-19T07:53:48;8.1;;;7.0;;
79592;SDS011;69074;45.164;9.704;2023-11-19T07:56:13;8.1;;;7.0;;
79592;SDS011;69074;45.164;9.704;2023-11-19T07:58:38;8.1;;;7.0;;
79592;SDS011;69074;45.164;9.704;2023-11-19T08:01:04;8.0;;;7.2;;
79592;SDS011;69074;45.164;9.704;2023-11-19T08:03:28;8.0;;;7.2;;
79592;SDS011;69074;45.164;9.704;2023-11-19T08:05:54;8.0;;;7.2;;
79592;SDS011;69074;45.164;9.704;2023-11-19T08:08:18;8.0;;;7.2;;
79592;SDS011;69074;45.164;9.704;2023-11-19T08:10:43;8.0;;;7.2;;
79592;SDS011;69074;45.164;9.704;2023-11-19T08:13:08;8.0;;;7.2;;
79592;SDS011;69074;45.164;9.704;2023-11-19T08:15:33;11.3;;;10.1;;
79592;SDS011;69074;45.164;9.704;2023-11-19T08:17:58;11.3;;;10.1;;
79592;SDS011;69074;45.164;9.704;2023-11-19T08:20:23;11.3;;;10.1;;
79592;SDS011;69074;45.164;9.704;2023-11-19T08:22:48;11.3;;;10.1;;
79592;SDS011;69074;45.164;9.704;2023-11-19T08:25:13;11.3;;;10.1;;
79592;SDS011;69074;45.164;9.704;2023-11-19T08:27:38;11.3;;;10.1;;
79592;SDS011;69074;45.164;9.704;2023-11-19T08:30:04;11.3;;;10.1;;
79592;SDS011;69074;45.164;9.704;2023-11-19T08:32:29;26.6;;;13.6;;
79592;SDS011;69074;45.164;9.704;2023-11-19T08:34:53;26.6;;;13.6;;
79592;SDS011;69074;45.164;9.704;2023-11-19T08:37:18;26.6;;;13.6;;
79592;SDS011;69074;45.164;9.704;2023-11-19T08:39:43;26.6;;;13.6;;
79592;SDS011;69074;45.164;9.704;2023-11-19T08:42:08;26.6;;;13.6;;
79592;SDS011;69074;45.164;9.704;2023-11-19T08:44:33;26.6;;;13.6;;
79592;SDS011;69074;45.164;9.704;2023-11-19T08:46:58;20.5;;;15.1;;
79592;SDS011;69074;45.164;9.704;2023-11-19T08:49:23;20.5;;;15.1;;
79592;SDS011;69074;45.164;9.704;2023-11-19T08:51:48;20.5;;;15.1;;
79592;SDS011;69074;45.164;9.704;2023-11-19T08:54:13;20.5;;;15.1;;
79592;SDS011;69074;45.164;9.704;2023-11-19T08:56:38;20.5;;;15.1;;
79592;SDS011;69074;45.164;9.704;2023-11-19T08:59:03;20.5;;;15.1;;
79592;SDS011;69074;45.164;9.704;2023-11-19T09:01:28;22.2;;;17.1;;
79592;SDS011;69074;45.164;9.704;2023-11-19T09:03:53;22.2;;;17.1;;
79592;SDS011;69074;45.164;9.704;2023-11-19T09:06:18;22.2;;;17.1;;
79592;SDS011;69074;45.164;9.704;2023-11-19T09:08:43;22.2;;;17.1;;
79592;SDS011;69074;45.164;9.704;2023-11-19T09:11:08;22.2;;;17.1;;
79592;SDS011;69074;45.164;9.704;2023-11-19T09:13:33;22.2;;;17.1;;
79592;SDS011;69074;45.164;9.704;2023-11-19T09:15:58;23.9;;;19.7;;
79592;SDS011;69074;45.164;9.704;2023-11-19T09:18:23;23.9;;;19.7;;
79592;SDS011;69074;45.164;9.704;2023-11-19T09:20:48;23.9;;;19.7;;
79592;SDS011;69074;45.164;9.704;2023-11-19T09:23:13;23.9;;;19.7;;
79592;SDS011;69074;45.164;9.704;2023-11-19T09:25:38;23.9;;;19.7;;
79592;SDS011;69074;45.164;9.704;2023-11-19T09:28:03;23.9;;;19.7;;
79592;SDS011;69074;45.164;9.704;2023-11-19T09:30:28;27.2;;;21.0;;
79592;SDS011;69074;45.164;9.704;2023-11-19T09:32:53;27.2;;;21.0;;
79592;SDS011;69074;45.164;9.704;2023-11-19T09:35:18;27.2;;;21.0;;
79592;SDS011;69074;45.164;9.704;2023-11-19T09:37:43;27.2;;;21.0;;
79592;SDS011;69074;45.164;9.704;2023-11-19T09:40:08;27.2;;;21.0;;
79592;SDS011;69074;45.164;9.704;2023-11-19T09:42:34;27.2;;;21.0;;
79592;SDS011;69074;45.164;9.704;2023-11-19T09:44:58;27.2;;;21.0;;
79592;SDS011;69074;45.164;9.704;2023-11-19T09:47:23;27.9;;;21.2;;
79592;SDS011;69074;45.164;9.704;2023-11-19T09:49:48;27.9;;;21.2;;
79592;SDS011;69074;45.164;9.704;2023-11-19T09:52:13;27.9;;;21.2;;
79592;SDS011;69074;45.164;9.704;2023-11-19T09:54:38;27.9;;;21.2;;
79592;SDS011;69074;45.164;9.704;2023-11-19T09:57:03;27.9;;;21.2;;
79592;SDS011;69074;45.164;9.704;2023-11-19T09:59:29;27.9;;;21.2;;
79592;SDS011;69074;45.164;9.704;2023-11-19T10:01:53;26.3;;;21.0;;
79592;SDS011;69074;45.164;9.704;2023-11-19T10:04:18;26.3;;;21.0;;
79592;SDS011;69074;45.164;9.704;2023-11-19T10:06:43;26.3;;;21.0;;
79592;SDS011;69074;45.164;9.704;2023-11-19T10:09:08;26.3;;;21.0;;
79592;SDS011;69074;45.164;9.704;2023-11-19T10:11:33;26.3;;;21.0;;
79592;SDS011;69074;45.164;9.704;2023-11-19T10:13:58;26.3;;;21.0;;
79592;SDS011;69074;45.164;9.704;2023-11-19T10:16:28;26.9;;;21.6;;
79592;SDS011;69074;45.164;9.704;2023-11-19T10:18:49;26.9;;;21.6;;
79592;SDS011;69074;45.164;9.704;2023-11-19T10:21:13;26.9;;;21.6;;
79592;SDS011;69074;45.164;9.704;2023-11-19T10:23:48;26.9;;;21.6;;
79592;SDS011;69074;45.164;9.704;2023-11-19T10:26:03;26.9;;;21.6;;
79592;SDS011;69074;45.164;9.704;2023-11-19T10:28:30;26.9;;;21.6;;
79592;SDS011;69074;45.164;9.704;2023-11-19T10:30:56;25.5;;;21.0;;
79592;SDS011;69074;45.164;9.704;2023-11-19T10:33:18;25.5;;;21.0;;
79592;SDS011;69074;45.164;9.704;2023-11-19T10:35:51;25.5;;;21.0;;
79592;SDS011;69074;45.164;9.704;2023-11-19T10:38:13;25.5;;;21.0;;
79592;SDS011;69074;45.164;9.704;2023-11-19T10:40:37;25.5;;;21.0;;
79592;SDS011;69074;45.164;9.704;2023-11-19T10:43:01;25.5;;;21.0;;
79592;SDS011;69074;45.164;9.704;2023-11-19T10:45:23;26.5;;;20.8;;
79592;SDS011;69074;45.164;9.704;2023-11-19T10:47:48;26.5;;;20.8;;
79592;SDS011;69074;45.164;9.704;2023-11-19T10:50:13;26.5;;;20.8;;
79592;SDS011;69074;45.164;9.704;2023-11-19T10:52:38;26.5;;;20.8;;
79592;SDS011;69074;45.164;9.704;2023-11-19T10:55:04;26.5;;;20.8;;
79592;SDS011;69074;45.164;9.704;2023-11-19T10:57:29;26.5;;;20.8;;
79592;SDS011;69074;45.164;9.704;2023-11-19T10:59:55;26.5;;;20.8;;
79592;SDS011;69074;45.164;9.704;2023-11-19T11:02:19;25.0;;;19.7;;
79592;SDS011;69074;45.164;9.704;2023-11-19T11:04:43;25.0;;;19.7;;
79592;SDS011;69074;45.164;9.704;2023-11-19T11:07:08;25.0;;;19.7;;
79592;SDS011;69074;45.164;9.704;2023-11-19T11:09:33;25.0;;;19.7;;
79592;SDS011;69074;45.164;9.704;2023-11-19T11:11:58;25.0;;;19.7;;
79592;SDS011;69074;45.164;9.704;2023-11-19T11:14:23;25.0;;;19.7;;
79592;SDS011;69074;45.164;9.704;2023-11-19T11:16:48;25.2;;;18.4;;
79592;SDS011;69074;45.164;9.704;2023-11-19T11:19:14;25.2;;;18.4;;
79592;SDS011;69074;45.164;9.704;2023-11-19T11:21:38;25.2;;;18.4;;
79592;SDS011;69074;45.164;9.704;2023-11-19T11:24:09;25.2;;;18.4;;
79592;SDS011;69074;45.164;9.704;2023-11-19T11:26:33;25.2;;;18.4;;
79592;SDS011;69074;45.164;9.704;2023-11-19T11:28:55;25.2;;;18.4;;
79592;SDS011;69074;45.164;9.704;2023-11-19T11:31:22;23.6;;;18.2;;
79592;SDS011;69074;45.164;9.704;2023-11-19T11:33:54;23.6;;;18.2;;
79592;SDS011;69074;45.164;9.704;2023-11-19T11:36:11;23.6;;;18.2;;
79592;SDS011;69074;45.164;9.704;2023-11-19T11:38:34;23.6;;;18.2;;
79592;SDS011;69074;45.164;9.704;2023-11-19T11:41:30;23.6;;;18.2;;
79592;SDS011;69074;45.164;9.704;2023-11-19T11:43:43;23.6;;;18.2;;
79592;SDS011;69074;45.164;9.704;2023-11-19T11:45:48;19.7;;;16.9;;
79592;SDS011;69074;45.164;9.704;2023-11-19T11:48:15;19.7;;;16.9;;
79592;SDS011;69074;45.164;9.704;2023-11-19T11:50:47;19.7;;;16.9;;
79592;SDS011;69074;45.164;9.704;2023-11-19T11:53:19;19.7;;;16.9;;
79592;SDS011;69074;45.164;9.704;2023-11-19T11:55:29;19.7;;;16.9;;
79592;SDS011;69074;45.164;9.704;2023-11-19T11:57:53;19.7;;;16.9;;
79592;SDS011;69074;45.164;9.704;2023-11-19T12:00:21;20.9;;;16.9;;
79592;SDS011;69074;45.164;9.704;2023-11-19T12:02:44;20.9;;;16.9;;
79592;SDS011;69074;45.164;9.704;2023-11-19T12:05:08;20.9;;;16.9;;
79592;SDS011;69074;45.164;9.704;2023-11-19T12:07:33;20.9;;;16.9;;
79592;SDS011;69074;45.164;9.704;2023-11-19T12:10:05;20.9;;;16.9;;
79592;SDS011;69074;45.164;9.704;2023-11-19T12:12:26;20.9;;;16.9;;
79592;SDS011;69074;45.164;9.704;2023-11-19T12:15:20;20.9;;;16.9;;
79592;SDS011;69074;45.164;9.704;2023-11-19T12:17:32;16.3;;;14.2;;
79592;SDS011;69074;45.164;9.704;2023-11-19T12:19:40;16.3;;;14.2;;
79592;SDS011;69074;45.164;9.704;2023-11-19T12:22:04;16.3;;;14.2;;
79592;SDS011;69074;45.164;9.704;2023-11-19T12:24:28;16.3;;;14.2;;
79592;SDS011;69074;45.164;9.704;2023-11-19T12:26:53;16.3;;;14.2;;
79592;SDS011;69074;45.164;9.704;2023-11-19T12:29:18;16.3;;;14.2;;
79592;SDS011;69074;45.164;9.704;2023-11-19T12:31:44;20.3;;;16.0;;
79592;SDS011;69074;45.164;9.704;2023-11-19T12:34:08;20.3;;;16.0;;
79592;SDS011;69074;45.164;9.704;2023-11-19T12:36:33;20.3;;;16.0;;
79592;SDS011;69074;45.164;9.704;2023-11-19T12:38:58;20.3;;;16.0;;
79592;SDS011;69074;45.164;9.704;2023-11-19T12:41:23;20.3;;;16.0;;
79592;SDS011;69074;45.164;9.704;2023-11-19T12:43:49;20.3;;;16.0;;
79592;SDS011;69074;45.164;9.704;2023-11-19T12:46:17;19.1;;;14.4;;
79592;SDS011;69074;45.164;9.704;2023-11-19T12:48:41;19.1;;;14.4;;
79592;SDS011;69074;45.164;9.704;2023-11-19T12:51:03;19.1;;;14.4;;
79592;SDS011;69074;45.164;9.704;2023-11-19T12:53:28;19.1;;;14.4;;
79592;SDS011;69074;45.164;9.704;2023-11-19T12:55:54;19.1;;;14.4;;
79592;SDS011;69074;45.164;9.704;2023-11-19T12:58:34;19.1;;;14.4;;
79592;SDS011;69074;45.164;9.704;2023-11-19T13:00:43;15.7;;;12.8;;
79592;SDS011;69074;45.164;9.704;2023-11-19T13:03:08;15.7;;;12.8;;
79592;SDS011;69074;45.164;9.704;2023-11-19T13:05:33;15.7;;;12.8;;
79592;SDS011;69074;45.164;9.704;2023-11-19T13:07:59;15.7;;;12.8;;
79592;SDS011;69074;45.164;9.704;2023-11-19T13:10:23;15.7;;;12.8;;
79592;SDS011;69074;45.164;9.704;2023-11-19T13:12:59;15.7;;;12.8;;
79592;SDS011;69074;45.164;9.704;2023-11-19T13:15:29;14.6;;;12.2;;
79592;SDS011;69074;45.164;9.704;2023-11-19T13:17:38;14.6;;;12.2;;
79592;SDS011;69074;45.164;9.704;2023-11-19T13:20:03;14.6;;;12.2;;
79592;SDS011;69074;45.164;9.704;2023-11-19T13:22:28;14.6;;;12.2;;
79592;SDS011;69074;45.164;9.704;2023-11-19T13:24:53;14.6;;;12.2;;
79592;SDS011;69074;45.164;9.704;2023-11-19T13:27:18;14.6;;;12.2;;
79592;SDS011;69074;45.164;9.704;2023-11-19T13:29:43;14.6;;;12.2;;
79592;SDS011;69074;45.164;9.704;2023-11-19T13:32:08;14.0;;;12.1;;
79592;SDS011;69074;45.164;9.704;2023-11-19T13:34:33;14.0;;;12.1;;
79592;SDS011;69074;45.164;9.704;2023-11-19T13:36:58;14.0;;;12.1;;
79592;SDS011;69074;45.164;9.704;2023-11-19T13:39:23;14.0;;;12.1;;
79592;SDS011;69074;45.164;9.704;2023-11-19T13:41:48;14.0;;;12.1;;
79592;SDS011;69074;45.164;9.704;2023-11-19T13:44:13;14.0;;;12.1;;
79592;SDS011;69074;45.164;9.704;2023-11-19T13:46:38;13.6;;;11.7;;
79592;SDS011;69074;45.164;9.704;2023-11-19T13:49:03;13.6;;;11.7;;
79592;SDS011;69074;45.164;9.704;2023-11-19T13:51:28;13.6;;;11.7;;
79592;SDS011;69074;45.164;9.704;2023-11-19T13:53:53;13.6;;;11.7;;
79592;SDS011;69074;45.164;9.704;2023-11-19T13:56:18;13.6;;;11.7;;
79592;SDS011;69074;45.164;9.704;2023-11-19T13:58:43;13.6;;;11.7;;
79592;SDS011;69074;45.164;9.704;2023-11-19T14:01:08;15.3;;;11.8;;
79592;SDS011;69074;45.164;9.704;2023-11-19T14:03:33;15.3;;;11.8;;
79592;SDS011;69074;45.164;9.704;2023-11-19T14:05:58;15.3;;;11.8;;
79592;SDS011;69074;45.164;9.704;2023-11-19T14:08:23;15.3;;;11.8;;
79592;SDS011;69074;45.164;9.704;2023-11-19T14:10:48;15.3;;;11.8;;
79592;SDS011;69074;45.164;9.704;2023-11-19T14:13:13;15.3;;;11.8;;
79592;SDS011;69074;45.164;9.704;2023-11-19T14:15:38;14.2;;;11.0;;
79592;SDS011;69074;45.164;9.704;2023-11-19T14:18:03;14.2;;;11.0;;
79592;SDS011;69074;45.164;9.704;2023-11-19T14:20:29;14.2;;;11.0;;
79592;SDS011;69074;45.164;9.704;2023-11-19T14:22:53;14.2;;;11.0;;
79592;SDS011;69074;45.164;9.704;2023-11-19T14:25:18;14.2;;;11.0;;
79592;SDS011;69074;45.164;9.704;2023-11-19T14:27:44;14.2;;;11.0;;
79592;SDS011;69074;45.164;9.704;2023-11-19T14:30:09;18.8;;;14.6;;
79592;SDS011;69074;45.164;9.704;2023-11-19T14:32:33;18.8;;;14.6;;
79592;SDS011;69074;45.164;9.704;2023-11-19T14:34:58;18.8;;;14.6;;